createdAt,value
2018-06-09T00:01:47.002Z,18.10
2018-06-09T00:04:15.181Z,18.00
2018-06-09T00:06:43.106Z,18.00
2018-06-09T00:09:10.981Z,18.00
2018-06-09T00:11:39.077Z,18.10
2018-06-09T00:14:06.916Z,18.00
2018-06-09T00:16:34.782Z,18.00
2018-06-09T00:19:02.648Z,17.90
2018-06-09T00:21:30.439Z,18.10
2018-06-09T00:23:58.229Z,18.10
2018-06-09T00:26:26.026Z,18.40
2018-06-09T00:28:53.921Z,18.30
2018-06-09T00:31:21.962Z,18.20
2018-06-09T00:33:49.786Z,18.30
2018-06-09T00:36:17.531Z,18.30
2018-06-09T00:38:45.423Z,18.40
2018-06-09T00:41:13.353Z,18.50
2018-06-09T00:43:41.305Z,18.20
2018-06-09T00:46:09.373Z,18.10
2018-06-09T00:48:37.270Z,18.10
2018-06-09T00:51:05.371Z,18.20
2018-06-09T00:57:07.697Z,18.30
2018-06-09T00:59:35.681Z,18.20
2018-06-09T01:02:04.521Z,18.10
2018-06-09T01:04:32.382Z,18.10
2018-06-09T01:07:00.169Z,18.00
2018-06-09T01:09:28.242Z,18.10
2018-06-09T01:14:23.706Z,18.00
2018-06-09T01:16:51.473Z,18.00
2018-06-09T01:19:19.448Z,18.00
2018-06-09T01:21:47.590Z,17.90
2018-06-09T01:24:15.366Z,17.80
2018-06-09T01:26:43.142Z,17.80
2018-06-09T01:29:10.973Z,17.70
2018-06-09T01:34:06.387Z,17.80
2018-06-09T01:36:34.336Z,17.80
2018-06-09T01:39:04.549Z,17.90
2018-06-09T01:41:32.425Z,17.90
2018-06-09T01:44:00.190Z,17.80
2018-06-09T01:46:27.985Z,17.80
2018-06-09T01:48:55.922Z,17.70
2018-06-09T01:51:23.681Z,17.80
2018-06-09T01:53:51.486Z,17.90
2018-06-09T01:56:19.385Z,17.80
2018-06-09T01:58:47.360Z,17.80
2018-06-09T02:01:15.412Z,17.90
2018-06-09T02:03:43.216Z,17.80
2018-06-09T02:06:12.062Z,17.90
2018-06-09T02:08:40.118Z,17.80
2018-06-09T02:13:35.602Z,17.70
2018-06-09T02:16:03.409Z,17.70
2018-06-09T02:18:32.624Z,17.70
2018-06-09T02:21:00.385Z,17.80
2018-06-09T02:23:28.176Z,17.70
2018-06-09T02:25:56.085Z,17.70
2018-06-09T02:28:23.977Z,17.70
2018-06-09T02:30:51.849Z,17.70
2018-06-09T02:33:19.893Z,17.70
2018-06-09T02:35:47.771Z,17.90
2018-06-09T02:38:15.642Z,17.70
2018-06-09T02:40:43.544Z,17.70
2018-06-09T02:43:11.371Z,17.90
2018-06-09T02:45:39.157Z,17.90
2018-06-09T02:48:06.978Z,18.00
2018-06-09T02:50:34.842Z,18.00
2018-06-09T02:53:02.663Z,18.10
2018-06-09T02:55:30.577Z,18.10
2018-06-09T02:57:59.288Z,18.10
2018-06-09T03:00:27.237Z,18.00
2018-06-09T03:02:55.064Z,18.00
2018-06-09T03:05:23.439Z,18.10
2018-06-09T03:07:51.553Z,18.00
2018-06-09T03:10:19.451Z,18.10
2018-06-09T03:15:14.981Z,17.80
2018-06-09T03:17:42.825Z,17.70
2018-06-09T03:20:10.697Z,17.60
2018-06-09T03:22:38.521Z,17.70
2018-06-09T03:25:06.289Z,18.00
2018-06-09T03:27:34.165Z,18.30
2018-06-09T03:30:02.049Z,18.20
2018-06-09T03:32:29.878Z,18.30
2018-06-09T03:34:57.661Z,18.10
2018-06-09T03:37:25.524Z,18.00
2018-06-09T03:39:53.613Z,18.00
2018-06-09T03:42:21.535Z,18.00
2018-06-09T03:44:49.372Z,18.10
2018-06-09T03:47:17.190Z,18.00
2018-06-09T03:49:45.245Z,18.00
2018-06-09T03:52:13.022Z,18.00
2018-06-09T03:54:40.866Z,18.00
2018-06-09T03:57:08.709Z,18.00
2018-06-09T03:59:36.601Z,18.00
2018-06-09T04:04:47.060Z,18.00
2018-06-09T04:07:14.881Z,17.90
2018-06-09T04:09:42.653Z,18.00
2018-06-09T04:12:10.485Z,18.00
2018-06-09T04:14:38.261Z,17.80
2018-06-09T04:17:06.073Z,18.00
2018-06-09T04:19:33.976Z,18.20
2018-06-09T04:22:01.849Z,18.30
2018-06-09T04:24:29.672Z,18.30
2018-06-09T04:26:57.469Z,18.30
2018-06-09T04:29:25.569Z,18.30
2018-06-09T04:31:53.373Z,18.20
2018-06-09T04:34:21.168Z,18.10
2018-06-09T04:36:49.105Z,18.10
2018-06-09T04:39:17.101Z,18.50
2018-06-09T04:41:44.905Z,18.60
2018-06-09T04:44:12.741Z,18.50
2018-06-09T04:46:40.572Z,18.50
2018-06-09T04:49:08.493Z,18.40
2018-06-09T04:51:36.309Z,18.60
2018-06-09T04:54:04.177Z,18.60
2018-06-09T04:56:32.021Z,18.50
2018-06-09T04:59:00.114Z,18.40
2018-06-09T05:03:55.680Z,18.70
2018-06-09T05:06:23.468Z,18.90
2018-06-09T05:08:51.548Z,18.90
2018-06-09T05:11:19.697Z,19.00
2018-06-09T05:13:47.505Z,19.10
2018-06-09T05:16:15.289Z,19.00
2018-06-09T05:18:43.132Z,19.10
2018-06-09T05:21:10.881Z,19.40
2018-06-09T05:23:38.629Z,19.30
2018-06-09T05:26:06.387Z,19.60
2018-06-09T05:28:34.200Z,19.50
2018-06-09T05:31:01.929Z,19.60
2018-06-09T05:33:29.805Z,19.70
2018-06-09T05:35:57.568Z,19.80
2018-06-09T05:38:25.320Z,19.90
2018-06-09T05:40:53.097Z,20.20
2018-06-09T05:43:21.113Z,20.20
2018-06-09T05:45:48.892Z,20.10
2018-06-09T05:48:16.728Z,20.30
2018-06-09T05:50:44.534Z,20.20
2018-06-09T05:53:12.337Z,20.30
2018-06-09T05:55:40.102Z,20.60
2018-06-09T05:58:07.986Z,20.80
2018-06-09T06:00:35.731Z,20.80
2018-06-09T06:03:03.747Z,20.90
2018-06-09T06:05:31.513Z,21.10
2018-06-09T06:07:59.265Z,21.20
2018-06-09T06:10:27.124Z,21.20
2018-06-09T06:12:55.028Z,21.30
2018-06-09T06:15:22.981Z,21.50
2018-06-09T06:17:50.825Z,21.80
2018-06-09T06:20:18.624Z,22.00
2018-06-09T06:22:46.396Z,22.10
2018-06-09T06:25:14.209Z,22.40
2018-06-09T06:27:42.081Z,22.60
2018-06-09T06:30:10.189Z,22.90
2018-06-09T06:32:37.926Z,23.00
2018-06-09T06:37:34.045Z,23.40
2018-06-09T06:40:02.189Z,23.50
2018-06-09T06:42:30.309Z,23.70
2018-06-09T06:44:58.182Z,23.90
2018-06-09T06:47:26.022Z,24.30
2018-06-09T06:49:54.219Z,24.70
2018-06-09T06:52:22.345Z,24.60
2018-06-09T06:54:50.293Z,24.90
2018-06-09T06:57:18.100Z,24.80
2018-06-09T06:59:46.089Z,24.90
2018-06-09T07:02:13.938Z,25.00
2018-06-09T07:04:41.725Z,25.30
2018-06-09T07:07:09.493Z,25.50
2018-06-09T07:09:47.224Z,25.60
2018-06-09T07:12:15.094Z,26.10
2018-06-09T07:14:42.881Z,26.70
2018-06-09T07:17:10.669Z,26.80
2018-06-09T07:19:38.490Z,27.10
2018-06-09T07:22:06.897Z,27.30
2018-06-09T07:24:34.773Z,27.40
2018-06-09T07:27:02.634Z,27.50
2018-06-09T07:29:30.461Z,27.60
2018-06-09T07:32:00.965Z,27.70
2018-06-09T07:34:28.809Z,27.70
2018-06-09T07:36:58.706Z,27.90
2018-06-09T07:39:26.725Z,27.90
2018-06-09T07:41:54.889Z,28.00
2018-06-09T07:44:22.893Z,28.20
2018-06-09T07:46:50.824Z,28.30
2018-06-09T07:49:19.102Z,28.50
2018-06-09T07:51:46.908Z,28.70
2018-06-09T07:54:14.678Z,29.00
2018-06-09T07:56:42.525Z,29.10
2018-06-09T07:59:10.685Z,29.20
2018-06-09T08:01:38.509Z,29.40
2018-06-09T08:04:06.309Z,29.70
2018-06-09T08:06:34.385Z,29.90
2018-06-09T08:09:02.349Z,30.00
2018-06-09T08:11:30.096Z,30.10
2018-06-09T08:13:58.233Z,30.30
2018-06-09T08:16:26.237Z,30.50
2018-06-09T08:18:54.085Z,30.60
2018-06-09T08:21:22.105Z,30.90
2018-06-09T08:23:49.909Z,31.00
2018-06-09T08:26:17.726Z,31.10
2018-06-09T08:28:45.596Z,31.20
2018-06-09T08:31:13.507Z,31.40
2018-06-09T08:33:41.374Z,31.80
2018-06-09T08:36:09.308Z,31.80
2018-06-09T08:38:37.143Z,32.20
2018-06-09T08:41:05.059Z,32.00
2018-06-09T08:43:32.954Z,31.90
2018-06-09T08:46:00.900Z,32.00
2018-06-09T08:48:28.749Z,32.10
2018-06-09T08:50:56.678Z,32.20
2018-06-09T08:53:24.558Z,32.40
2018-06-09T08:55:52.622Z,32.70
2018-06-09T08:58:20.469Z,32.90
2018-06-09T09:00:48.263Z,32.90
2018-06-09T09:03:16.090Z,32.90
2018-06-09T09:05:43.941Z,32.90
2018-06-09T09:08:11.787Z,32.80
2018-06-09T09:10:39.740Z,32.80
2018-06-09T09:13:07.552Z,32.80
2018-06-09T09:15:35.330Z,33.00
2018-06-09T09:18:03.101Z,32.90
2018-06-09T09:20:31.089Z,32.90
2018-06-09T09:22:58.941Z,32.90
2018-06-09T09:25:26.763Z,32.80
2018-06-09T09:27:54.624Z,32.90
2018-06-09T09:30:22.725Z,33.00
2018-06-09T09:32:50.581Z,33.00
2018-06-09T09:35:18.336Z,33.00
2018-06-09T09:37:46.090Z,33.10
2018-06-09T09:40:14.117Z,33.10
2018-06-09T09:42:41.885Z,33.20
2018-06-09T09:45:09.718Z,33.10
2018-06-09T09:47:37.520Z,33.20
2018-06-09T09:50:05.486Z,33.40
2018-06-09T09:52:33.312Z,33.10
2018-06-09T09:55:01.056Z,33.00
2018-06-09T09:57:28.866Z,32.90
2018-06-09T09:59:56.938Z,32.90
2018-06-09T10:02:24.763Z,33.00
2018-06-09T10:04:52.597Z,33.00
2018-06-09T10:07:20.382Z,33.10
2018-06-09T10:09:48.213Z,33.20
2018-06-09T10:12:16.710Z,33.30
2018-06-09T10:14:44.461Z,33.10
2018-06-09T10:17:12.241Z,33.20
2018-06-09T10:19:40.055Z,33.20
2018-06-09T10:22:07.873Z,33.20
2018-06-09T10:24:35.672Z,33.20
2018-06-09T10:27:03.473Z,33.10
2018-06-09T10:29:31.319Z,33.10
2018-06-09T10:31:59.129Z,33.10
2018-06-09T10:34:27.063Z,33.10
2018-06-09T10:36:54.893Z,33.30
2018-06-09T10:39:22.952Z,33.20
2018-06-09T10:41:50.901Z,33.20
2018-06-09T10:44:18.641Z,33.10
2018-06-09T10:46:46.453Z,33.10
2018-06-09T10:49:14.218Z,33.10
2018-06-09T10:51:41.981Z,33.10
2018-06-09T10:54:24.423Z,33.00
2018-06-09T10:56:52.221Z,32.90
2018-06-09T10:59:20.090Z,32.80
2018-06-09T11:01:47.877Z,32.80
2018-06-09T11:04:15.619Z,32.80
2018-06-09T11:06:43.382Z,32.60
2018-06-09T11:09:16.378Z,32.70
2018-06-09T11:14:11.769Z,32.70
2018-06-09T11:16:39.533Z,32.70
2018-06-09T11:19:07.321Z,32.80
2018-06-09T11:21:35.089Z,32.80
2018-06-09T11:24:02.980Z,33.00
2018-06-09T11:28:58.508Z,33.10
2018-06-09T11:33:54.297Z,33.40
2018-06-09T11:36:22.085Z,33.40
2018-06-09T11:38:49.861Z,33.50
2018-06-09T11:43:45.713Z,33.60
2018-06-09T11:48:41.289Z,33.60
2018-06-09T11:51:09.105Z,33.50
2018-06-09T11:53:36.859Z,33.50
2018-06-09T11:56:04.645Z,33.40
2018-06-09T11:58:32.485Z,33.40
2018-06-09T12:01:00.249Z,33.30
2018-06-09T12:03:28.093Z,33.20
2018-06-09T12:05:56.053Z,33.20
2018-06-09T12:08:24.549Z,33.10
2018-06-09T12:10:52.654Z,33.10
2018-06-09T12:13:20.558Z,33.10
2018-06-09T12:15:48.428Z,33.10
2018-06-09T12:18:16.221Z,33.00
2018-06-09T12:20:44.341Z,32.80
2018-06-09T12:23:12.085Z,32.80
2018-06-09T12:28:07.562Z,32.50
2018-06-09T12:30:35.407Z,32.30
2018-06-09T12:33:03.261Z,32.20
2018-06-09T12:35:30.973Z,32.20
2018-06-09T12:37:58.748Z,32.00
2018-06-09T12:40:26.981Z,32.00
2018-06-09T12:42:55.122Z,31.80
2018-06-09T12:45:22.983Z,31.70
2018-06-09T12:47:50.778Z,31.70
2018-06-09T12:50:19.118Z,31.50
2018-06-09T12:52:46.945Z,31.40
2018-06-09T12:55:14.774Z,31.40
2018-06-09T12:57:42.526Z,31.30
2018-06-09T13:00:10.320Z,31.20
2018-06-09T13:02:38.117Z,31.00
2018-06-09T13:05:06.002Z,30.90
2018-06-09T13:07:33.755Z,30.90
2018-06-09T13:10:01.675Z,30.80
2018-06-09T13:12:29.536Z,30.80
2018-06-09T13:14:57.501Z,30.70
2018-06-09T13:17:25.369Z,30.80
2018-06-09T13:19:53.143Z,30.80
2018-06-09T13:22:20.961Z,30.80
2018-06-09T13:24:48.725Z,30.90
2018-06-09T13:27:16.525Z,30.80
2018-06-09T13:29:44.298Z,30.90
2018-06-09T13:32:12.058Z,30.90
2018-06-09T13:34:39.864Z,30.90
2018-06-09T13:37:07.696Z,30.80
2018-06-09T13:39:35.590Z,30.80
2018-06-09T13:42:03.439Z,30.80
2018-06-09T13:44:31.205Z,30.70
2018-06-09T13:46:58.961Z,30.60
2018-06-09T13:49:27.001Z,30.60
2018-06-09T13:51:54.986Z,30.60
2018-06-09T13:54:22.887Z,30.60
2018-06-09T13:56:50.670Z,30.60
2018-06-09T13:59:18.609Z,30.50
2018-06-09T14:01:47.249Z,30.40
2018-06-09T14:04:15.022Z,30.40
2018-06-09T14:09:10.568Z,30.40
2018-06-09T14:14:05.953Z,30.50
2018-06-09T14:16:33.817Z,30.50
2018-06-09T14:19:01.925Z,30.50
2018-06-09T14:23:57.510Z,30.60
2018-06-09T14:26:25.514Z,30.70
2018-06-09T14:28:53.668Z,30.70
2018-06-09T14:31:21.494Z,30.60
2018-06-09T14:33:49.298Z,30.60
2018-06-09T14:36:17.093Z,30.60
2018-06-09T14:38:44.866Z,30.60
2018-06-09T14:41:12.713Z,30.50
2018-06-09T14:43:40.749Z,30.50
2018-06-09T14:46:08.556Z,30.50
2018-06-09T14:51:04.158Z,30.50
2018-06-09T14:53:32.075Z,30.50
2018-06-09T14:55:59.890Z,30.50
2018-06-09T14:58:27.965Z,30.50
2018-06-09T15:00:56.376Z,30.60
2018-06-09T15:05:52.656Z,30.60
2018-06-09T15:08:20.424Z,30.50
2018-06-09T15:10:48.227Z,30.50
2018-06-09T15:13:16.017Z,30.40
2018-06-09T15:15:43.769Z,30.30
2018-06-09T15:18:11.553Z,30.20
2018-06-09T15:20:39.345Z,30.20
2018-06-09T15:25:49.785Z,29.90
2018-06-09T15:28:17.587Z,29.80
2018-06-09T15:30:45.493Z,29.70
2018-06-09T15:33:13.301Z,29.60
2018-06-09T15:35:41.101Z,29.40
2018-06-09T15:38:08.877Z,29.30
2018-06-09T15:40:36.698Z,29.20
2018-06-09T15:43:04.549Z,29.20
2018-06-09T15:45:32.329Z,29.10
2018-06-09T15:48:00.201Z,29.00
2018-06-09T15:50:28.201Z,28.90
2018-06-09T15:52:56.136Z,28.90
2018-06-09T15:55:23.908Z,28.90
2018-06-09T15:57:51.731Z,28.90
2018-06-09T16:00:19.545Z,28.80
2018-06-09T16:02:47.333Z,28.80
2018-06-09T16:05:15.128Z,28.80
2018-06-09T16:07:42.927Z,28.90
2018-06-09T16:10:10.789Z,28.80
2018-06-09T16:12:38.562Z,28.80
2018-06-09T16:15:06.361Z,28.80
2018-06-09T16:17:34.165Z,29.00
2018-06-09T16:20:02.057Z,28.90
2018-06-09T16:22:29.904Z,28.90
2018-06-09T16:24:57.845Z,28.90
2018-06-09T16:27:25.893Z,28.90
2018-06-09T16:29:53.694Z,28.90
2018-06-09T16:32:21.506Z,28.90
2018-06-09T16:34:49.426Z,28.80
2018-06-09T16:37:17.093Z,28.90
2018-06-09T16:39:45.063Z,29.10
2018-06-09T16:42:12.870Z,28.80
2018-06-09T16:44:40.657Z,28.70
2018-06-09T16:47:08.441Z,28.80
2018-06-09T16:49:36.457Z,28.70
2018-06-09T16:52:04.282Z,28.70
2018-06-09T16:54:32.314Z,28.80
2018-06-09T16:57:00.261Z,28.80
2018-06-09T16:59:34.243Z,28.80
2018-06-09T17:02:02.330Z,28.90
2018-06-09T17:06:57.998Z,28.70
2018-06-09T17:09:25.922Z,28.70
2018-06-09T17:11:53.777Z,28.60
2018-06-09T17:14:21.602Z,28.60
2018-06-09T17:16:49.401Z,28.50
2018-06-09T17:19:17.201Z,28.60
2018-06-09T17:21:44.988Z,28.40
2018-06-09T17:24:12.784Z,28.30
2018-06-09T17:26:40.588Z,28.30
2018-06-09T17:31:36.060Z,28.20
2018-06-09T17:34:03.975Z,28.30
2018-06-09T17:36:31.733Z,28.20
2018-06-09T17:38:59.674Z,28.10
2018-06-09T17:41:27.547Z,28.00
2018-06-09T17:43:55.551Z,28.00
2018-06-09T17:46:23.397Z,27.90
2018-06-09T17:48:51.201Z,28.00
2018-06-09T17:51:19.017Z,27.90
2018-06-09T17:53:46.828Z,27.90
2018-06-09T17:56:14.631Z,27.80
2018-06-09T17:58:43.199Z,27.90
2018-06-09T18:01:11.004Z,27.90
2018-06-09T18:03:38.846Z,28.00
2018-06-09T18:06:06.649Z,28.00
2018-06-09T18:11:02.302Z,28.10
2018-06-09T18:13:30.153Z,28.00
2018-06-09T18:15:58.345Z,28.00
2018-06-09T18:18:26.386Z,28.00
2018-06-09T18:20:54.501Z,27.90
2018-06-09T18:23:22.283Z,27.90
2018-06-09T18:25:50.105Z,27.90
2018-06-09T18:28:17.877Z,27.90
2018-06-09T18:30:45.945Z,27.80
2018-06-09T18:33:14.205Z,27.80
2018-06-09T18:35:41.991Z,27.80
2018-06-09T18:40:37.621Z,27.80
2018-06-09T18:43:05.494Z,27.70
2018-06-09T18:45:33.377Z,27.60
2018-06-09T18:48:01.214Z,27.50
2018-06-09T18:50:30.209Z,27.70
2018-06-09T18:52:58.314Z,27.70
2018-06-09T18:55:27.374Z,27.90
2018-06-09T18:57:55.170Z,27.70
2018-06-09T19:00:23.109Z,27.30
2018-06-09T19:02:50.940Z,27.00
2018-06-09T19:05:18.725Z,26.70
2018-06-09T19:07:46.501Z,26.50
2018-06-09T19:10:14.313Z,26.40
2018-06-09T19:12:42.109Z,26.20
2018-06-09T19:15:09.905Z,26.20
2018-06-09T19:20:05.421Z,25.80
2018-06-09T19:22:33.338Z,25.50
2018-06-09T19:25:01.210Z,25.30
2018-06-09T19:27:29.108Z,25.10
2018-06-09T19:29:57.099Z,25.10
2018-06-09T19:34:52.597Z,24.90
2018-06-09T19:37:20.380Z,24.90
2018-06-09T19:39:48.480Z,24.80
2018-06-09T19:42:16.285Z,24.40
2018-06-09T19:44:44.113Z,24.30
2018-06-09T19:47:12.681Z,24.20
2018-06-09T19:52:08.890Z,24.00
2018-06-09T19:54:37.581Z,23.90
2018-06-09T19:57:05.517Z,23.70
2018-06-09T19:59:33.364Z,23.80
2018-06-09T20:02:01.569Z,23.80
2018-06-09T20:04:29.730Z,23.80
2018-06-09T20:06:57.827Z,23.70
2018-06-09T20:09:25.948Z,23.50
2018-06-09T20:14:21.417Z,23.10
2018-06-09T20:16:49.277Z,23.10
2018-06-09T20:19:17.353Z,23.10
2018-06-09T20:21:45.152Z,23.10
2018-06-09T20:24:13.016Z,23.10
2018-06-09T20:26:40.870Z,23.00
2018-06-09T20:29:08.972Z,23.00
2018-06-09T20:31:36.753Z,23.10
2018-06-09T20:34:04.585Z,23.10
2018-06-09T20:36:32.468Z,23.10
2018-06-09T20:39:00.627Z,23.00
2018-06-09T20:41:28.680Z,23.00
2018-06-09T20:43:56.497Z,23.20
2018-06-09T20:46:24.445Z,23.20
2018-06-09T20:48:52.323Z,23.20
2018-06-09T20:53:47.877Z,23.00
2018-06-09T20:56:15.735Z,22.90
2018-06-09T20:58:43.517Z,22.80
2018-06-09T21:01:11.281Z,22.80
2018-06-09T21:03:39.105Z,22.90
2018-06-09T21:06:06.971Z,22.90
2018-06-09T21:08:34.801Z,22.80
2018-06-09T21:11:02.614Z,22.70
2018-06-09T21:13:30.399Z,22.60
2018-06-09T21:15:58.484Z,22.60
2018-06-09T21:18:26.269Z,22.50
2018-06-09T21:20:54.201Z,22.40
2018-06-09T21:23:21.985Z,22.40
2018-06-09T21:25:49.789Z,22.40
2018-06-09T21:28:22.989Z,22.50
2018-06-09T21:32:03.885Z,22.50
2018-06-09T21:34:48.482Z,22.50
2018-06-09T21:37:20.777Z,22.50
2018-06-09T21:39:54.084Z,22.40
2018-06-09T21:42:30.318Z,22.40
2018-06-09T21:45:05.141Z,22.30
2018-06-09T21:47:32.961Z,22.30
2018-06-09T21:50:00.985Z,22.20
2018-06-09T21:52:29.064Z,22.20
2018-06-09T21:54:56.941Z,22.30
2018-06-09T21:57:25.441Z,22.40
2018-06-09T21:59:53.544Z,22.20
2018-06-09T22:04:49.090Z,22.20
2018-06-09T22:07:17.209Z,22.20
2018-06-09T22:09:45.445Z,22.00
2018-06-09T22:12:13.281Z,21.90
2018-06-09T22:14:41.177Z,21.70
2018-06-09T22:17:09.029Z,21.70
2018-06-09T22:19:36.919Z,21.90
2018-06-09T22:22:04.803Z,21.90
2018-06-09T22:24:32.664Z,21.80
2018-06-09T22:27:00.606Z,21.70
2018-06-09T22:29:28.389Z,21.50
2018-06-09T22:31:56.235Z,21.40
2018-06-09T22:34:24.049Z,21.30
2018-06-09T22:37:06.501Z,21.20
2018-06-09T22:39:34.422Z,21.10
2018-06-09T22:42:02.444Z,21.00
2018-06-09T22:44:30.269Z,20.90
2018-06-09T22:46:58.137Z,20.80
2018-06-09T22:49:26.034Z,20.70
2018-06-09T22:51:53.853Z,20.80
2018-06-09T22:54:21.725Z,20.80
2018-06-09T22:56:49.538Z,20.80
2018-06-09T22:59:17.944Z,20.80
2018-06-09T23:01:45.741Z,20.60
2018-06-09T23:04:13.526Z,20.60
2018-06-09T23:06:41.355Z,20.60
2018-06-09T23:09:09.430Z,20.50
2018-06-09T23:11:37.354Z,20.40
2018-06-09T23:14:05.145Z,20.30
2018-06-09T23:16:32.996Z,20.20
2018-06-09T23:19:00.861Z,20.10
2018-06-09T23:21:28.806Z,20.10
2018-06-09T23:23:57.164Z,20.20
2018-06-09T23:28:52.645Z,20.20
2018-06-09T23:31:20.450Z,20.10
2018-06-09T23:33:48.249Z,20.10
2018-06-09T23:36:16.094Z,20.10
2018-06-09T23:38:44.053Z,20.20
2018-06-09T23:41:11.877Z,20.20
2018-06-09T23:43:39.742Z,20.20
2018-06-09T23:46:07.547Z,20.50
2018-06-09T23:48:35.392Z,20.40
2018-06-09T23:51:17.849Z,20.50
2018-06-09T23:56:28.746Z,20.70
2018-06-09T23:58:56.609Z,20.80
